sensor_id;sensor_type;location;lat;lon;timestamp;P1;durP1;ratioP1;P2;durP2;ratioP2
25091;SDS011;13082;52.374;4.946;2023-03-01T00:01:33;14.00;;;9.33;;
25091;SDS011;13082;52.374;4.946;2023-03-01T00:03:59;13.67;;;8.30;;
25091;SDS011;13082;52.374;4.946;2023-03-01T00:06:25;13.47;;;8.27;;
25091;SDS011;13082;52.374;4.946;2023-03-01T00:08:51;13.03;;;8.93;;
25091;SDS011;13082;52.374;4.946;2023-03-01T00:11:19;14.03;;;8.53;;
25091;SDS011;13082;52.374;4.946;2023-03-01T00:13:45;12.10;;;8.37;;
25091;SDS011;13082;52.374;4.946;2023-03-01T00:16:13;12.33;;;8.03;;
25091;SDS011;13082;52.374;4.946;2023-03-01T00:18:41;10.77;;;8.10;;
25091;SDS011;13082;52.374;4.946;2023-03-01T00:21:07;11.20;;;8.20;;
25091;SDS011;13082;52.374;4.946;2023-03-01T00:23:35;11.10;;;7.87;;
25091;SDS011;13082;52.374;4.946;2023-03-01T00:26:05;11.47;;;8.17;;
25091;SDS011;13082;52.374;4.946;2023-03-01T00:28:32;11.03;;;7.93;;
25091;SDS011;13082;52.374;4.946;2023-03-01T00:31:02;13.97;;;7.93;;
25091;SDS011;13082;52.374;4.946;2023-03-01T00:33:36;11.30;;;7.93;;
25091;SDS011;13082;52.374;4.946;2023-03-01T00:36:01;10.63;;;7.50;;
25091;SDS011;13082;52.374;4.946;2023-03-01T00:38:28;12.00;;;9.33;;
25091;SDS011;13082;52.374;4.946;2023-03-01T00:40:54;14.47;;;8.80;;
25091;SDS011;13082;52.374;4.946;2023-03-01T00:43:20;14.10;;;8.53;;
25091;SDS011;13082;52.374;4.946;2023-03-01T00:45:46;14.00;;;9.43;;
25091;SDS011;13082;52.374;4.946;2023-03-01T00:48:11;17.57;;;8.77;;
25091;SDS011;13082;52.374;4.946;2023-03-01T00:50:37;16.17;;;9.43;;
25091;SDS011;13082;52.374;4.946;2023-03-01T00:53:02;13.07;;;9.00;;
25091;SDS011;13082;52.374;4.946;2023-03-01T00:55:29;11.47;;;8.43;;
25091;SDS011;13082;52.374;4.946;2023-03-01T00:57:56;16.87;;;9.43;;
25091;SDS011;13082;52.374;4.946;2023-03-01T01:00:21;13.33;;;8.90;;
25091;SDS011;13082;52.374;4.946;2023-03-01T01:02:47;14.13;;;9.17;;
25091;SDS011;13082;52.374;4.946;2023-03-01T01:05:13;14.03;;;8.87;;
25091;SDS011;13082;52.374;4.946;2023-03-01T01:07:39;12.30;;;8.83;;
25091;SDS011;13082;52.374;4.946;2023-03-01T01:10:04;12.50;;;8.30;;
25091;SDS011;13082;52.374;4.946;2023-03-01T01:12:31;12.73;;;8.93;;
25091;SDS011;13082;52.374;4.946;2023-03-01T01:14:57;13.50;;;8.90;;
25091;SDS011;13082;52.374;4.946;2023-03-01T01:17:23;13.80;;;8.90;;
25091;SDS011;13082;52.374;4.946;2023-03-01T01:19:48;17.17;;;9.57;;
25091;SDS011;13082;52.374;4.946;2023-03-01T01:22:14;15.77;;;9.50;;
25091;SDS011;13082;52.374;4.946;2023-03-01T01:24:40;13.50;;;8.93;;
25091;SDS011;13082;52.374;4.946;2023-03-01T01:27:05;13.80;;;8.97;;
25091;SDS011;13082;52.374;4.946;2023-03-01T01:29:32;15.67;;;10.13;;
25091;SDS011;13082;52.374;4.946;2023-03-01T01:31:57;15.67;;;8.43;;
25091;SDS011;13082;52.374;4.946;2023-03-01T01:34:23;13.30;;;9.17;;
25091;SDS011;13082;52.374;4.946;2023-03-01T01:36:50;17.93;;;8.83;;
25091;SDS011;13082;52.374;4.946;2023-03-01T01:39:18;12.03;;;8.67;;
25091;SDS011;13082;52.374;4.946;2023-03-01T01:41:45;14.17;;;9.10;;
25091;SDS011;13082;52.374;4.946;2023-03-01T01:44:20;18.30;;;9.37;;
25091;SDS011;13082;52.374;4.946;2023-03-01T01:47:04;12.40;;;8.67;;
25091;SDS011;13082;52.374;4.946;2023-03-01T01:49:50;13.13;;;8.80;;
25091;SDS011;13082;52.374;4.946;2023-03-01T01:54:51;13.90;;;8.97;;
25091;SDS011;13082;52.374;4.946;2023-03-01T01:57:30;13.93;;;9.83;;
25091;SDS011;13082;52.374;4.946;2023-03-01T02:00:03;15.03;;;9.60;;
25091;SDS011;13082;52.374;4.946;2023-03-01T02:02:31;16.83;;;9.60;;
25091;SDS011;13082;52.374;4.946;2023-03-01T02:05:02;15.67;;;10.30;;
25091;SDS011;13082;52.374;4.946;2023-03-01T02:07:41;15.90;;;10.17;;
25091;SDS011;13082;52.374;4.946;2023-03-01T02:10:08;13.20;;;9.70;;
25091;SDS011;13082;52.374;4.946;2023-03-01T02:12:34;15.10;;;10.03;;
25091;SDS011;13082;52.374;4.946;2023-03-01T02:15:01;14.57;;;10.40;;
25091;SDS011;13082;52.374;4.946;2023-03-01T02:17:27;18.23;;;11.03;;
25091;SDS011;13082;52.374;4.946;2023-03-01T02:22:43;14.40;;;9.83;;
25091;SDS011;13082;52.374;4.946;2023-03-01T02:30:22;17.77;;;10.83;;
25091;SDS011;13082;52.374;4.946;2023-03-01T02:32:51;16.00;;;10.57;;
25091;SDS011;13082;52.374;4.946;2023-03-01T02:35:19;14.67;;;9.87;;
25091;SDS011;13082;52.374;4.946;2023-03-01T02:37:46;15.80;;;10.83;;
25091;SDS011;13082;52.374;4.946;2023-03-01T02:40:16;15.60;;;10.63;;
25091;SDS011;13082;52.374;4.946;2023-03-01T02:42:51;14.33;;;10.20;;
25091;SDS011;13082;52.374;4.946;2023-03-01T02:45:20;17.87;;;10.73;;
25091;SDS011;13082;52.374;4.946;2023-03-01T02:47:46;15.93;;;9.87;;
25091;SDS011;13082;52.374;4.946;2023-03-01T02:50:39;15.10;;;10.93;;
25091;SDS011;13082;52.374;4.946;2023-03-01T02:56:24;17.00;;;10.70;;
25091;SDS011;13082;52.374;4.946;2023-03-01T02:58:50;17.17;;;11.10;;
25091;SDS011;13082;52.374;4.946;2023-03-01T03:01:17;16.07;;;10.03;;
25091;SDS011;13082;52.374;4.946;2023-03-01T03:03:44;16.47;;;9.97;;
25091;SDS011;13082;52.374;4.946;2023-03-01T03:06:09;19.93;;;10.63;;
25091;SDS011;13082;52.374;4.946;2023-03-01T03:08:35;15.33;;;9.93;;
25091;SDS011;13082;52.374;4.946;2023-03-01T03:11:01;16.53;;;10.80;;
25091;SDS011;13082;52.374;4.946;2023-03-01T03:13:27;19.07;;;10.63;;
25091;SDS011;13082;52.374;4.946;2023-03-01T03:15:53;17.83;;;11.13;;
25091;SDS011;13082;52.374;4.946;2023-03-01T03:18:21;17.13;;;10.33;;
25091;SDS011;13082;52.374;4.946;2023-03-01T03:20:47;15.23;;;11.07;;
25091;SDS011;13082;52.374;4.946;2023-03-01T03:23:17;16.57;;;9.90;;
25091;SDS011;13082;52.374;4.946;2023-03-01T03:25:44;14.70;;;9.93;;
25091;SDS011;13082;52.374;4.946;2023-03-01T03:28:09;17.57;;;10.50;;
25091;SDS011;13082;52.374;4.946;2023-03-01T03:30:36;16.70;;;10.13;;
25091;SDS011;13082;52.374;4.946;2023-03-01T03:33:04;17.97;;;11.20;;
25091;SDS011;13082;52.374;4.946;2023-03-01T03:35:34;17.90;;;11.50;;
25091;SDS011;13082;52.374;4.946;2023-03-01T03:38:06;20.40;;;10.67;;
25091;SDS011;13082;52.374;4.946;2023-03-01T03:40:40;15.07;;;10.13;;
25091;SDS011;13082;52.374;4.946;2023-03-01T03:43:10;17.17;;;10.97;;
25091;SDS011;13082;52.374;4.946;2023-03-01T03:45:37;18.70;;;11.40;;
25091;SDS011;13082;52.374;4.946;2023-03-01T03:48:04;18.57;;;11.07;;
25091;SDS011;13082;52.374;4.946;2023-03-01T03:50:31;16.80;;;10.73;;
25091;SDS011;13082;52.374;4.946;2023-03-01T03:53:00;17.27;;;11.33;;
25091;SDS011;13082;52.374;4.946;2023-03-01T03:55:26;18.40;;;10.67;;
25091;SDS011;13082;52.374;4.946;2023-03-01T03:57:56;18.40;;;11.43;;
25091;SDS011;13082;52.374;4.946;2023-03-01T04:00:26;16.07;;;10.93;;
25091;SDS011;13082;52.374;4.946;2023-03-01T04:02:51;19.73;;;12.50;;
25091;SDS011;13082;52.374;4.946;2023-03-01T04:05:21;15.60;;;11.20;;
25091;SDS011;13082;52.374;4.946;2023-03-01T04:07:47;15.60;;;10.10;;
25091;SDS011;13082;52.374;4.946;2023-03-01T04:10:14;16.17;;;10.50;;
25091;SDS011;13082;52.374;4.946;2023-03-01T04:12:41;16.53;;;10.87;;
25091;SDS011;13082;52.374;4.946;2023-03-01T04:15:10;17.80;;;11.17;;
25091;SDS011;13082;52.374;4.946;2023-03-01T04:17:40;16.33;;;11.03;;
25091;SDS011;13082;52.374;4.946;2023-03-01T04:20:11;17.07;;;10.87;;
25091;SDS011;13082;52.374;4.946;2023-03-01T04:22:50;15.10;;;9.67;;
25091;SDS011;13082;52.374;4.946;2023-03-01T04:25:24;15.60;;;9.93;;
25091;SDS011;13082;52.374;4.946;2023-03-01T04:27:49;17.50;;;10.83;;
25091;SDS011;13082;52.374;4.946;2023-03-01T04:30:15;15.27;;;9.43;;
25091;SDS011;13082;52.374;4.946;2023-03-01T04:32:41;18.93;;;11.87;;
25091;SDS011;13082;52.374;4.946;2023-03-01T04:35:07;16.27;;;10.80;;
25091;SDS011;13082;52.374;4.946;2023-03-01T04:37:33;15.77;;;9.93;;
25091;SDS011;13082;52.374;4.946;2023-03-01T04:39:59;16.10;;;10.77;;
25091;SDS011;13082;52.374;4.946;2023-03-01T04:42:26;20.67;;;10.27;;
25091;SDS011;13082;52.374;4.946;2023-03-01T04:44:51;15.87;;;10.47;;
25091;SDS011;13082;52.374;4.946;2023-03-01T04:47:17;19.23;;;11.13;;
25091;SDS011;13082;52.374;4.946;2023-03-01T04:49:43;16.33;;;9.37;;
25091;SDS011;13082;52.374;4.946;2023-03-01T04:52:08;17.67;;;10.90;;
25091;SDS011;13082;52.374;4.946;2023-03-01T04:54:35;17.57;;;10.33;;
25091;SDS011;13082;52.374;4.946;2023-03-01T04:57:01;14.33;;;9.80;;
25091;SDS011;13082;52.374;4.946;2023-03-01T04:59:27;22.17;;;11.20;;
25091;SDS011;13082;52.374;4.946;2023-03-01T05:01:54;19.60;;;10.47;;
25091;SDS011;13082;52.374;4.946;2023-03-01T05:04:21;15.03;;;10.50;;
25091;SDS011;13082;52.374;4.946;2023-03-01T05:06:47;16.00;;;10.83;;
25091;SDS011;13082;52.374;4.946;2023-03-01T05:09:13;15.03;;;9.83;;
25091;SDS011;13082;52.374;4.946;2023-03-01T05:11:38;14.10;;;9.43;;
25091;SDS011;13082;52.374;4.946;2023-03-01T05:14:04;15.77;;;10.33;;
25091;SDS011;13082;52.374;4.946;2023-03-01T05:16:31;17.20;;;10.97;;
25091;SDS011;13082;52.374;4.946;2023-03-01T05:18:57;16.47;;;11.03;;
25091;SDS011;13082;52.374;4.946;2023-03-01T05:21:23;20.47;;;11.43;;
25091;SDS011;13082;52.374;4.946;2023-03-01T05:23:50;17.87;;;12.17;;
25091;SDS011;13082;52.374;4.946;2023-03-01T05:26:16;22.23;;;10.60;;
25091;SDS011;13082;52.374;4.946;2023-03-01T05:28:43;16.73;;;11.07;;
25091;SDS011;13082;52.374;4.946;2023-03-01T05:31:10;17.63;;;12.40;;
25091;SDS011;13082;52.374;4.946;2023-03-01T05:33:36;19.40;;;12.83;;
25091;SDS011;13082;52.374;4.946;2023-03-01T05:36:03;16.97;;;11.37;;
25091;SDS011;13082;52.374;4.946;2023-03-01T05:38:29;19.50;;;12.33;;
25091;SDS011;13082;52.374;4.946;2023-03-01T05:40:54;17.00;;;10.63;;
25091;SDS011;13082;52.374;4.946;2023-03-01T05:43:20;20.37;;;12.87;;
25091;SDS011;13082;52.374;4.946;2023-03-01T05:45:46;21.67;;;11.47;;
25091;SDS011;13082;52.374;4.946;2023-03-01T05:48:12;19.03;;;11.10;;
25091;SDS011;13082;52.374;4.946;2023-03-01T05:50:39;17.57;;;11.53;;
25091;SDS011;13082;52.374;4.946;2023-03-01T05:53:08;17.30;;;11.70;;
25091;SDS011;13082;52.374;4.946;2023-03-01T05:55:36;19.37;;;11.90;;
25091;SDS011;13082;52.374;4.946;2023-03-01T05:58:03;18.67;;;12.57;;
25091;SDS011;13082;52.374;4.946;2023-03-01T06:00:31;21.37;;;11.70;;
25091;SDS011;13082;52.374;4.946;2023-03-01T06:02:58;22.07;;;12.83;;
25091;SDS011;13082;52.374;4.946;2023-03-01T06:05:24;18.83;;;11.57;;
25091;SDS011;13082;52.374;4.946;2023-03-01T06:07:50;23.00;;;12.90;;
25091;SDS011;13082;52.374;4.946;2023-03-01T06:10:17;19.00;;;11.27;;
25091;SDS011;13082;52.374;4.946;2023-03-01T06:12:45;19.60;;;11.40;;
25091;SDS011;13082;52.374;4.946;2023-03-01T06:15:14;19.40;;;12.30;;
25091;SDS011;13082;52.374;4.946;2023-03-01T06:17:41;18.30;;;12.50;;
25091;SDS011;13082;52.374;4.946;2023-03-01T06:20:09;21.00;;;12.67;;
25091;SDS011;13082;52.374;4.946;2023-03-01T06:22:37;18.53;;;11.03;;
25091;SDS011;13082;52.374;4.946;2023-03-01T06:25:03;21.93;;;11.40;;
25091;SDS011;13082;52.374;4.946;2023-03-01T06:27:30;18.83;;;11.93;;
25091;SDS011;13082;52.374;4.946;2023-03-01T06:29:55;21.73;;;10.23;;
25091;SDS011;13082;52.374;4.946;2023-03-01T06:32:21;18.47;;;11.30;;
25091;SDS011;13082;52.374;4.946;2023-03-01T06:34:46;16.93;;;10.60;;
25091;SDS011;13082;52.374;4.946;2023-03-01T06:37:12;19.40;;;11.17;;
25091;SDS011;13082;52.374;4.946;2023-03-01T06:39:37;22.67;;;13.73;;
25091;SDS011;13082;52.374;4.946;2023-03-01T06:42:04;15.60;;;10.77;;
25091;SDS011;13082;52.374;4.946;2023-03-01T06:44:29;21.77;;;11.53;;
25091;SDS011;13082;52.374;4.946;2023-03-01T06:46:55;22.37;;;11.97;;
25091;SDS011;13082;52.374;4.946;2023-03-01T06:49:20;19.03;;;10.50;;
25091;SDS011;13082;52.374;4.946;2023-03-01T06:51:46;20.10;;;11.07;;
25091;SDS011;13082;52.374;4.946;2023-03-01T06:54:12;18.30;;;11.30;;
25091;SDS011;13082;52.374;4.946;2023-03-01T06:56:38;19.03;;;11.33;;
25091;SDS011;13082;52.374;4.946;2023-03-01T06:59:04;18.80;;;11.43;;
25091;SDS011;13082;52.374;4.946;2023-03-01T07:01:30;18.17;;;10.60;;
25091;SDS011;13082;52.374;4.946;2023-03-01T07:03:56;14.30;;;10.50;;
25091;SDS011;13082;52.374;4.946;2023-03-01T07:06:22;14.70;;;9.23;;
25091;SDS011;13082;52.374;4.946;2023-03-01T07:08:48;13.77;;;8.93;;
25091;SDS011;13082;52.374;4.946;2023-03-01T07:11:14;14.73;;;9.50;;
25091;SDS011;13082;52.374;4.946;2023-03-01T07:13:40;26.93;;;10.60;;
25091;SDS011;13082;52.374;4.946;2023-03-01T07:16:06;15.43;;;9.77;;
25091;SDS011;13082;52.374;4.946;2023-03-01T07:18:32;16.60;;;11.07;;
25091;SDS011;13082;52.374;4.946;2023-03-01T07:20:57;14.87;;;9.30;;
25091;SDS011;13082;52.374;4.946;2023-03-01T07:23:23;10.97;;;8.00;;
25091;SDS011;13082;52.374;4.946;2023-03-01T07:25:52;14.40;;;8.90;;
25091;SDS011;13082;52.374;4.946;2023-03-01T07:28:19;11.57;;;8.23;;
25091;SDS011;13082;52.374;4.946;2023-03-01T07:30:45;16.10;;;9.23;;
25091;SDS011;13082;52.374;4.946;2023-03-01T07:33:10;11.73;;;8.70;;
25091;SDS011;13082;52.374;4.946;2023-03-01T07:35:36;19.10;;;11.07;;
25091;SDS011;13082;52.374;4.946;2023-03-01T07:38:01;18.33;;;11.57;;
25091;SDS011;13082;52.374;4.946;2023-03-01T07:40:27;26.30;;;15.23;;
25091;SDS011;13082;52.374;4.946;2023-03-01T07:42:56;28.57;;;16.63;;
25091;SDS011;13082;52.374;4.946;2023-03-01T07:45:23;27.00;;;16.17;;
25091;SDS011;13082;52.374;4.946;2023-03-01T07:47:50;30.30;;;17.70;;
25091;SDS011;13082;52.374;4.946;2023-03-01T07:50:16;29.03;;;17.77;;
25091;SDS011;13082;52.374;4.946;2023-03-01T07:52:44;18.03;;;11.97;;
25091;SDS011;13082;52.374;4.946;2023-03-01T07:55:10;15.40;;;10.20;;
25091;SDS011;13082;52.374;4.946;2023-03-01T07:57:36;15.47;;;9.80;;
25091;SDS011;13082;52.374;4.946;2023-03-01T08:00:02;16.70;;;9.73;;
25091;SDS011;13082;52.374;4.946;2023-03-01T08:02:28;15.00;;;8.80;;
25091;SDS011;13082;52.374;4.946;2023-03-01T08:04:54;14.80;;;9.10;;
25091;SDS011;13082;52.374;4.946;2023-03-01T08:07:20;14.20;;;9.10;;
25091;SDS011;13082;52.374;4.946;2023-03-01T08:09:45;14.00;;;8.73;;
25091;SDS011;13082;52.374;4.946;2023-03-01T08:12:11;13.50;;;8.87;;
25091;SDS011;13082;52.374;4.946;2023-03-01T08:14:36;12.97;;;8.73;;
25091;SDS011;13082;52.374;4.946;2023-03-01T08:17:02;17.53;;;10.13;;
25091;SDS011;13082;52.374;4.946;2023-03-01T08:19:28;14.50;;;9.93;;
25091;SDS011;13082;52.374;4.946;2023-03-01T08:21:54;18.73;;;11.27;;
25091;SDS011;13082;52.374;4.946;2023-03-01T08:24:20;14.77;;;9.43;;
25091;SDS011;13082;52.374;4.946;2023-03-01T08:26:45;15.87;;;9.67;;
25091;SDS011;13082;52.374;4.946;2023-03-01T08:29:11;15.80;;;9.80;;
25091;SDS011;13082;52.374;4.946;2023-03-01T08:31:38;13.20;;;8.43;;
25091;SDS011;13082;52.374;4.946;2023-03-01T08:34:06;14.07;;;9.63;;
25091;SDS011;13082;52.374;4.946;2023-03-01T08:36:38;17.90;;;10.03;;
25091;SDS011;13082;52.374;4.946;2023-03-01T08:39:06;18.23;;;9.80;;
25091;SDS011;13082;52.374;4.946;2023-03-01T08:41:33;25.03;;;11.87;;
25091;SDS011;13082;52.374;4.946;2023-03-01T08:43:59;18.03;;;10.57;;
25091;SDS011;13082;52.374;4.946;2023-03-01T08:46:25;19.73;;;10.70;;
25091;SDS011;13082;52.374;4.946;2023-03-01T08:48:56;18.27;;;11.13;;
25091;SDS011;13082;52.374;4.946;2023-03-01T08:51:22;18.37;;;11.47;;
25091;SDS011;13082;52.374;4.946;2023-03-01T08:53:49;25.80;;;11.43;;
25091;SDS011;13082;52.374;4.946;2023-03-01T08:56:15;18.40;;;11.43;;
25091;SDS011;13082;52.374;4.946;2023-03-01T08:58:45;20.10;;;12.40;;
25091;SDS011;13082;52.374;4.946;2023-03-01T09:01:14;18.90;;;11.37;;
25091;SDS011;13082;52.374;4.946;2023-03-01T09:03:41;21.10;;;12.90;;
25091;SDS011;13082;52.374;4.946;2023-03-01T09:06:08;20.30;;;11.67;;
25091;SDS011;13082;52.374;4.946;2023-03-01T09:08:34;19.73;;;12.47;;
25091;SDS011;13082;52.374;4.946;2023-03-01T09:11:02;19.57;;;12.33;;
25091;SDS011;13082;52.374;4.946;2023-03-01T09:13:29;21.43;;;12.43;;
25091;SDS011;13082;52.374;4.946;2023-03-01T09:15:57;21.87;;;12.30;;
25091;SDS011;13082;52.374;4.946;2023-03-01T09:18:24;22.77;;;12.20;;
25091;SDS011;13082;52.374;4.946;2023-03-01T09:20:49;22.30;;;13.17;;
25091;SDS011;13082;52.374;4.946;2023-03-01T09:23:15;22.37;;;13.33;;
25091;SDS011;13082;52.374;4.946;2023-03-01T09:25:40;23.43;;;13.33;;
25091;SDS011;13082;52.374;4.946;2023-03-01T09:28:06;25.63;;;15.13;;
25091;SDS011;13082;52.374;4.946;2023-03-01T09:30:32;23.60;;;13.80;;
25091;SDS011;13082;52.374;4.946;2023-03-01T09:32:57;24.53;;;13.90;;
25091;SDS011;13082;52.374;4.946;2023-03-01T09:35:23;21.70;;;13.23;;
25091;SDS011;13082;52.374;4.946;2023-03-01T09:37:49;21.50;;;12.93;;
25091;SDS011;13082;52.374;4.946;2023-03-01T09:40:21;21.87;;;13.03;;
25091;SDS011;13082;52.374;4.946;2023-03-01T09:42:57;17.77;;;11.40;;
25091;SDS011;13082;52.374;4.946;2023-03-01T09:45:34;18.83;;;12.43;;
25091;SDS011;13082;52.374;4.946;2023-03-01T09:48:05;19.53;;;11.90;;
25091;SDS011;13082;52.374;4.946;2023-03-01T09:50:38;23.30;;;11.97;;
25091;SDS011;13082;52.374;4.946;2023-03-01T09:53:08;17.60;;;12.37;;
25091;SDS011;13082;52.374;4.946;2023-03-01T10:01:02;15.67;;;10.63;;
25091;SDS011;13082;52.374;4.946;2023-03-01T10:03:44;17.17;;;11.30;;
25091;SDS011;13082;52.374;4.946;2023-03-01T10:06:35;19.27;;;11.57;;
25091;SDS011;13082;52.374;4.946;2023-03-01T10:09:10;19.23;;;11.60;;
25091;SDS011;13082;52.374;4.946;2023-03-01T10:11:43;17.27;;;11.37;;
25091;SDS011;13082;52.374;4.946;2023-03-01T10:14:26;20.03;;;12.60;;
25091;SDS011;13082;52.374;4.946;2023-03-01T10:16:57;18.57;;;12.50;;
25091;SDS011;13082;52.374;4.946;2023-03-01T10:19:43;15.57;;;10.80;;
25091;SDS011;13082;52.374;4.946;2023-03-01T10:22:13;20.43;;;11.33;;
25091;SDS011;13082;52.374;4.946;2023-03-01T10:24:46;13.67;;;10.10;;
25091;SDS011;13082;52.374;4.946;2023-03-01T10:27:23;15.30;;;9.67;;
25091;SDS011;13082;52.374;4.946;2023-03-01T10:29:55;15.13;;;10.40;;
25091;SDS011;13082;52.374;4.946;2023-03-01T10:32:29;19.27;;;11.03;;
25091;SDS011;13082;52.374;4.946;2023-03-01T10:34:55;15.67;;;10.17;;
25091;SDS011;13082;52.374;4.946;2023-03-01T10:37:22;17.43;;;10.27;;
25091;SDS011;13082;52.374;4.946;2023-03-01T10:40:06;14.83;;;10.23;;
25091;SDS011;13082;52.374;4.946;2023-03-01T10:42:34;16.33;;;10.77;;
25091;SDS011;13082;52.374;4.946;2023-03-01T10:47:47;14.90;;;9.80;;
25091;SDS011;13082;52.374;4.946;2023-03-01T10:56:06;17.40;;;10.27;;
25091;SDS011;13082;52.374;4.946;2023-03-01T10:58:38;13.30;;;9.27;;
25091;SDS011;13082;52.374;4.946;2023-03-01T11:03:40;14.57;;;10.40;;
25091;SDS011;13082;52.374;4.946;2023-03-01T11:08:42;19.57;;;11.27;;
25091;SDS011;13082;52.374;4.946;2023-03-01T11:16:28;14.03;;;10.60;;
25091;SDS011;13082;52.374;4.946;2023-03-01T11:19:00;14.90;;;9.43;;
25091;SDS011;13082;52.374;4.946;2023-03-01T11:24:19;18.83;;;10.87;;
25091;SDS011;13082;52.374;4.946;2023-03-01T11:26:55;17.43;;;10.67;;
25091;SDS011;13082;52.374;4.946;2023-03-01T11:29:30;17.70;;;10.53;;
25091;SDS011;13082;52.374;4.946;2023-03-01T11:32:02;17.27;;;10.30;;
25091;SDS011;13082;52.374;4.946;2023-03-01T11:37:20;15.97;;;11.27;;
25091;SDS011;13082;52.374;4.946;2023-03-01T11:42:20;14.57;;;10.57;;
25091;SDS011;13082;52.374;4.946;2023-03-01T11:44:54;15.90;;;10.10;;
25091;SDS011;13082;52.374;4.946;2023-03-01T11:47:35;14.33;;;9.80;;
25091;SDS011;13082;52.374;4.946;2023-03-01T12:01:54;16.33;;;10.87;;
25091;SDS011;13082;52.374;4.946;2023-03-01T12:07:20;15.63;;;10.37;;
25091;SDS011;13082;52.374;4.946;2023-03-01T12:10:23;19.43;;;11.43;;
25091;SDS011;13082;52.374;4.946;2023-03-01T12:15:47;13.53;;;9.67;;
25091;SDS011;13082;52.374;4.946;2023-03-01T12:18:47;16.47;;;10.73;;
25091;SDS011;13082;52.374;4.946;2023-03-01T12:30:02;14.53;;;9.60;;
25091;SDS011;13082;52.374;4.946;2023-03-01T12:35:28;13.27;;;9.70;;
25091;SDS011;13082;52.374;4.946;2023-03-01T12:37:59;16.93;;;10.73;;
25091;SDS011;13082;52.374;4.946;2023-03-01T12:48:47;10.30;;;7.50;;
25091;SDS011;13082;52.374;4.946;2023-03-01T12:51:32;8.97;;;6.87;;
25091;SDS011;13082;52.374;4.946;2023-03-01T12:54:01;11.23;;;7.73;;
25091;SDS011;13082;52.374;4.946;2023-03-01T12:56:36;12.00;;;7.83;;
25091;SDS011;13082;52.374;4.946;2023-03-01T13:01:45;13.33;;;8.13;;
25091;SDS011;13082;52.374;4.946;2023-03-01T13:18:42;16.50;;;9.20;;
25091;SDS011;13082;52.374;4.946;2023-03-01T13:20:50;13.93;;;9.30;;
25091;SDS011;13082;52.374;4.946;2023-03-01T13:23:26;15.80;;;9.07;;
25091;SDS011;13082;52.374;4.946;2023-03-01T13:28:42;11.97;;;9.30;;
25091;SDS011;13082;52.374;4.946;2023-03-01T13:36:48;10.03;;;7.63;;
25091;SDS011;13082;52.374;4.946;2023-03-01T13:39:29;18.13;;;10.03;;
25091;SDS011;13082;52.374;4.946;2023-03-01T13:41:59;11.83;;;7.70;;
25091;SDS011;13082;52.374;4.946;2023-03-01T13:44:37;11.97;;;7.83;;
25091;SDS011;13082;52.374;4.946;2023-03-01T13:49:55;14.70;;;8.97;;
25091;SDS011;13082;52.374;4.946;2023-03-01T13:54:51;11.30;;;7.70;;
25091;SDS011;13082;52.374;4.946;2023-03-01T13:57:20;11.80;;;7.53;;
25091;SDS011;13082;52.374;4.946;2023-03-01T13:59:50;12.03;;;6.93;;
25091;SDS011;13082;52.374;4.946;2023-03-01T14:02:16;11.23;;;7.37;;
25091;SDS011;13082;52.374;4.946;2023-03-01T14:04:42;11.10;;;7.83;;
25091;SDS011;13082;52.374;4.946;2023-03-01T14:07:20;12.30;;;8.50;;
25091;SDS011;13082;52.374;4.946;2023-03-01T14:09:52;12.33;;;8.73;;
25091;SDS011;13082;52.374;4.946;2023-03-01T14:15:04;11.73;;;8.40;;
25091;SDS011;13082;52.374;4.946;2023-03-01T14:20:26;13.70;;;8.97;;
25091;SDS011;13082;52.374;4.946;2023-03-01T14:22:54;11.03;;;8.03;;
25091;SDS011;13082;52.374;4.946;2023-03-01T14:27:56;12.97;;;8.70;;
25091;SDS011;13082;52.374;4.946;2023-03-01T14:30:30;15.00;;;8.50;;
25091;SDS011;13082;52.374;4.946;2023-03-01T14:33:17;11.90;;;8.13;;
25091;SDS011;13082;52.374;4.946;2023-03-01T14:35:51;14.10;;;7.90;;
25091;SDS011;13082;52.374;4.946;2023-03-01T14:38:22;10.43;;;7.17;;
25091;SDS011;13082;52.374;4.946;2023-03-01T14:41:14;8.63;;;6.73;;
25091;SDS011;13082;52.374;4.946;2023-03-01T14:43:47;8.93;;;6.83;;
25091;SDS011;13082;52.374;4.946;2023-03-01T14:46:36;7.90;;;6.13;;
25091;SDS011;13082;52.374;4.946;2023-03-01T14:49:04;8.47;;;6.17;;
25091;SDS011;13082;52.374;4.946;2023-03-01T14:51:43;7.23;;;5.83;;
25091;SDS011;13082;52.374;4.946;2023-03-01T14:54:20;21.07;;;7.53;;
25091;SDS011;13082;52.374;4.946;2023-03-01T14:56:51;8.50;;;5.83;;
25091;SDS011;13082;52.374;4.946;2023-03-01T14:59:22;8.00;;;5.23;;
25091;SDS011;13082;52.374;4.946;2023-03-01T15:01:49;6.13;;;5.30;;
25091;SDS011;13082;52.374;4.946;2023-03-01T15:04:18;6.50;;;4.60;;
25091;SDS011;13082;52.374;4.946;2023-03-01T15:06:44;8.20;;;4.93;;
25091;SDS011;13082;52.374;4.946;2023-03-01T15:09:14;8.43;;;4.90;;
25091;SDS011;13082;52.374;4.946;2023-03-01T15:11:42;6.67;;;4.50;;
25091;SDS011;13082;52.374;4.946;2023-03-01T15:19:50;6.77;;;4.97;;
25091;SDS011;13082;52.374;4.946;2023-03-01T15:22:16;6.07;;;4.20;;
25091;SDS011;13082;52.374;4.946;2023-03-01T15:24:46;6.37;;;4.70;;
25091;SDS011;13082;52.374;4.946;2023-03-01T15:27:16;7.67;;;4.30;;
25091;SDS011;13082;52.374;4.946;2023-03-01T15:29:50;6.10;;;5.23;;
25091;SDS011;13082;52.374;4.946;2023-03-01T15:34:55;6.07;;;5.07;;
25091;SDS011;13082;52.374;4.946;2023-03-01T15:37:44;7.83;;;4.60;;
25091;SDS011;13082;52.374;4.946;2023-03-01T15:40:22;7.17;;;4.97;;
25091;SDS011;13082;52.374;4.946;2023-03-01T15:43:02;7.63;;;5.03;;
25091;SDS011;13082;52.374;4.946;2023-03-01T15:45:29;6.93;;;4.43;;
25091;SDS011;13082;52.374;4.946;2023-03-01T15:48:02;7.37;;;5.50;;
25091;SDS011;13082;52.374;4.946;2023-03-01T15:50:57;6.30;;;4.73;;
25091;SDS011;13082;52.374;4.946;2023-03-01T15:53:24;5.97;;;4.90;;
25091;SDS011;13082;52.374;4.946;2023-03-01T15:55:52;6.93;;;4.80;;
25091;SDS011;13082;52.374;4.946;2023-03-01T15:58:24;7.57;;;4.77;;
25091;SDS011;13082;52.374;4.946;2023-03-01T16:00:50;7.40;;;5.03;;
25091;SDS011;13082;52.374;4.946;2023-03-01T16:03:21;6.17;;;4.73;;
25091;SDS011;13082;52.374;4.946;2023-03-01T16:05:48;5.33;;;4.43;;
25091;SDS011;13082;52.374;4.946;2023-03-01T16:08:15;6.67;;;4.60;;
25091;SDS011;13082;52.374;4.946;2023-03-01T16:10:41;8.47;;;4.53;;
25091;SDS011;13082;52.374;4.946;2023-03-01T16:13:11;6.67;;;4.70;;
25091;SDS011;13082;52.374;4.946;2023-03-01T16:15:38;5.03;;;3.93;;
25091;SDS011;13082;52.374;4.946;2023-03-01T16:18:04;6.90;;;4.00;;
25091;SDS011;13082;52.374;4.946;2023-03-01T16:20:31;6.80;;;4.47;;
25091;SDS011;13082;52.374;4.946;2023-03-01T16:22:58;6.50;;;4.30;;
25091;SDS011;13082;52.374;4.946;2023-03-01T16:25:28;5.53;;;4.10;;
25091;SDS011;13082;52.374;4.946;2023-03-01T16:27:54;7.60;;;4.50;;
25091;SDS011;13082;52.374;4.946;2023-03-01T16:30:21;7.93;;;4.83;;
25091;SDS011;13082;52.374;4.946;2023-03-01T16:32:48;6.23;;;4.93;;
25091;SDS011;13082;52.374;4.946;2023-03-01T16:35:15;8.95;;;5.40;;
25091;SDS011;13082;52.374;4.946;2023-03-01T16:37:44;5.57;;;4.40;;
25091;SDS011;13082;52.374;4.946;2023-03-01T16:40:17;7.87;;;4.80;;
25091;SDS011;13082;52.374;4.946;2023-03-01T16:42:49;8.23;;;5.90;;
25091;SDS011;13082;52.374;4.946;2023-03-01T16:45:15;7.40;;;4.77;;
25091;SDS011;13082;52.374;4.946;2023-03-01T16:47:41;7.57;;;4.60;;
25091;SDS011;13082;52.374;4.946;2023-03-01T16:50:07;5.67;;;4.70;;
25091;SDS011;13082;52.374;4.946;2023-03-01T16:52:34;5.00;;;4.30;;